Time;durP1;ratioP1;P1;durP2;ratioP2;P2;SDS_P1;SDS_P2;PMS_P1;PMS_P2;Temp;Humidity;BMP_temperature;BMP_pressure;BME280_temperature;BME280_humidity;BME280_pressure;Samples;Min_cycle;Max_cycle;Signal;HPM_P1;HPM_P2
2023/03/04 00:08:22;;;;;;;69.35;27.05;;;;;;;1.31;100.00;101031.63;20834206;28;20505;-82
2023/03/04 00:18:23;;;;;;;69.68;26.92;;;;;;;1.20;100.00;101039.03;20822978;28;20104;-82
2023/03/04 00:28:24;;;;;;;73.82;28.92;;;;;;;1.08;100.00;101038.63;20836505;28;20111;-82
2023/03/04 00:38:25;;;;;;;74.57;27.85;;;;;;;0.92;100.00;101047.56;20835637;28;20041;-82
2023/03/04 00:48:27;;;;;;;77.10;27.92;;;;;;;0.90;100.00;101043.16;20826653;28;20055;-82
2023/03/04 00:58:28;;;;;;;78.93;29.00;;;;;;;0.80;100.00;101046.25;20815719;28;20053;-82
2023/03/04 01:08:29;;;;;;;83.28;29.75;;;;;;;0.67;100.00;101040.69;20840121;28;20041;-82
2023/03/04 01:18:31;;;;;;;82.30;30.80;;;;;;;0.56;100.00;101041.13;20830059;28;20128;-82
2023/03/04 01:28:34;;;;;;;88.88;30.35;;;;;;;0.50;100.00;101049.53;20813840;28;20104;-82
2023/03/04 01:38:36;;;;;;;88.33;29.37;;;;;;;0.43;100.00;101034.66;20832195;28;20046;-82
2023/03/04 01:48:37;;;;;;;85.57;29.90;;;;;;;0.22;100.00;101030.50;20823930;28;20061;-82
2023/03/04 01:58:38;;;;;;;100.05;34.17;;;;;;;0.12;100.00;101033.56;20816241;28;20490;-82
2023/03/04 02:08:40;;;;;;;88.53;31.48;;;;;;;0.05;100.00;101018.75;20805382;28;20053;-82
2023/03/04 02:18:41;;;;;;;95.15;31.30;;;;;;;-0.12;100.00;101012.09;20811440;28;20064;-83
2023/03/04 02:28:42;;;;;;;96.55;31.00;;;;;;;-0.21;100.00;101017.75;20834005;28;20057;-82
2023/03/04 02:38:43;;;;;;;90.68;30.58;;;;;;;-0.30;100.00;101013.13;20836781;28;20415;-82
2023/03/04 02:48:45;;;;;;;95.93;29.95;;;;;;;-0.46;100.00;101005.66;20857490;28;20061;-83
2023/03/04 02:58:46;;;;;;;96.43;28.63;;;;;;;-0.64;100.00;101015.22;20854304;28;20073;-82
2023/03/04 03:08:47;;;;;;;89.75;28.15;;;;;;;-0.68;100.00;101010.78;20832081;28;20053;-82
2023/03/04 03:18:49;;;;;;;88.15;29.85;;;;;;;-0.92;100.00;101015.81;20851512;28;20045;-82
2023/03/04 03:28:50;;;;;;;86.75;28.05;;;;;;;-1.11;100.00;101017.63;20821726;28;20049;-82
2023/03/04 03:38:51;;;;;;;94.47;29.02;;;;;;;-1.23;100.00;101016.28;20843380;28;20093;-82
2023/03/04 03:48:52;;;;;;;87.57;28.05;;;;;;;-1.38;100.00;101017.38;20820193;28;20531;-82
2023/03/04 03:58:54;;;;;;;84.05;28.23;;;;;;;-1.49;100.00;101013.47;20843921;28;20083;-82
2023/03/04 04:08:55;;;;;;;86.22;26.48;;;;;;;-1.60;100.00;101022.41;20841240;28;20046;-82
2023/03/04 04:18:56;;;;;;;84.63;28.50;;;;;;;-1.67;100.00;101028.09;20836600;28;20128;-82
2023/03/04 04:28:57;;;;;;;92.55;27.88;;;;;;;-1.77;100.00;101015.66;20857406;28;20041;-82
2023/03/04 04:38:59;;;;;;;95.05;27.15;;;;;;;-1.81;100.00;101025.81;20815503;28;20116;-82
2023/03/04 04:49:00;;;;;;;87.18;25.80;;;;;;;-1.82;100.00;101024.06;20823299;28;20046;-82
2023/03/04 04:59:01;;;;;;;97.05;29.10;;;;;;;-1.95;100.00;101029.44;20860660;28;20060;-82
2023/03/04 05:09:03;;;;;;;99.53;27.58;;;;;;;-2.08;100.00;101034.84;20866514;28;20109;-82
2023/03/04 05:19:04;;;;;;;95.53;28.45;;;;;;;-2.10;100.00;101029.63;20823452;28;20649;-82
2023/03/04 05:29:05;;;;;;;95.07;26.75;;;;;;;-2.18;100.00;101033.53;20829604;28;20099;-82
2023/03/04 05:39:06;;;;;;;86.95;26.50;;;;;;;-2.21;100.00;101045.34;20812130;28;20049;-82
2023/03/04 05:49:08;;;;;;;107.47;29.17;;;;;;;-2.32;100.00;101047.41;20809091;28;20049;-82
2023/03/04 05:59:09;;;;;;;99.07;28.38;;;;;;;-2.37;100.00;101044.63;20809900;28;20111;-82
2023/03/04 06:09:10;;;;;;;100.10;30.67;;;;;;;-2.46;100.00;101054.47;20836186;28;20092;-82
2023/03/04 06:19:12;;;;;;;102.82;32.92;;;;;;;-2.46;100.00;101064.72;20843982;28;20049;-82
2023/03/04 06:29:13;;;;;;;95.63;28.42;;;;;;;-2.40;100.00;101076.94;20833017;28;20053;-83
2023/03/04 06:39:14;;;;;;;98.95;29.05;;;;;;;-2.21;100.00;101083.81;20856947;28;20061;-82
2023/03/04 06:49:15;;;;;;;93.07;28.20;;;;;;;-1.94;100.00;101091.91;20863937;28;20056;-82
2023/03/04 06:59:17;;;;;;;88.75;28.92;;;;;;;-1.55;100.00;101090.25;20841973;28;20054;-82
2023/03/04 07:09:18;;;;;;;96.35;28.38;;;;;;;-1.08;100.00;101081.16;20834980;28;20045;-86
2023/03/04 07:19:19;;;;;;;91.60;27.98;;;;;;;-1.00;100.00;101102.91;20836512;28;20045;-84
2023/03/04 07:29:21;;;;;;;96.53;30.30;;;;;;;-0.60;100.00;101112.25;20843361;28;20050;-83
2023/03/04 07:39:22;;;;;;;84.45;28.95;;;;;;;-0.41;100.00;101114.75;20848648;28;20625;-83
2023/03/04 07:49:23;;;;;;;92.47;29.00;;;;;;;-0.16;100.00;101123.44;20817742;28;20119;-82
2023/03/04 07:59:24;;;;;;;96.57;31.48;;;;;;;0.22;100.00;101128.38;20820051;28;20076;-82
2023/03/04 08:09:26;;;;;;;99.03;30.73;;;;;;;0.51;100.00;101126.88;20825562;28;20346;-83
2023/03/04 08:19:27;;;;;;;94.38;30.25;;;;;;;0.68;100.00;101134.34;20846890;28;20055;-84
2023/03/04 08:29:28;;;;;;;96.80;31.17;;;;;;;0.93;100.00;101136.97;20834363;28;20053;-84
2023/03/04 08:39:32;;;;;;;88.40;31.10;;;;;;;1.28;100.00;101135.59;20832859;28;20103;-84
2023/03/04 08:49:33;;;;;;;82.13;29.03;;;;;;;1.42;100.00;101135.16;20823037;28;20068;-85
2023/03/04 08:59:35;;;;;;;86.85;29.10;;;;;;;1.47;100.00;101141.34;20849759;28;20057;-83
2023/03/04 09:09:38;;;;;;;81.30;28.30;;;;;;;1.80;100.00;101136.41;20866206;28;20053;-83
2023/03/04 09:19:40;;;;;;;69.88;29.13;;;;;;;2.39;100.00;101123.53;20879692;28;20315;-84
2023/03/04 09:29:43;;;;;;;75.40;28.85;;;;;;;3.10;100.00;101127.25;20834097;28;20053;-86
2023/03/04 09:39:44;;;;;;;75.30;29.42;;;;;;;3.62;100.00;101128.56;20845493;28;20045;-85
2023/03/04 09:49:45;;;;;;;77.20;30.13;;;;;;;3.92;100.00;101136.16;20821158;28;20057;-85
2023/03/04 09:59:47;;;;;;;78.05;31.65;;;;;;;3.73;100.00;101142.63;20870853;28;20072;-82
2023/03/04 10:09:57;;;;;;;76.60;31.60;;;;;;;3.54;100.00;101148.19;20889210;28;20044;-84
2023/03/04 10:19:58;;;;;;;71.30;31.50;;;;;;;3.48;100.00;101140.28;20936307;28;20061;-84
2023/03/04 10:30:00;;;;;;;68.45;29.05;;;;;;;3.69;100.00;101138.25;20864008;28;20046;-83
2023/03/04 10:40:02;;;;;;;71.45;28.63;;;;;;;3.72;100.00;101125.34;20850831;28;20098;-81
2023/03/04 10:50:03;;;;;;;69.25;29.38;;;;;;;3.67;100.00;101121.78;20872264;28;20045;-81
2023/03/04 11:00:05;;;;;;;64.35;26.85;;;;;;;3.99;100.00;101103.50;20838581;28;20056;-84
2023/03/04 11:10:06;;;;;;;57.63;24.25;;;;;;;3.86;100.00;101100.63;20835709;28;20084;-85
2023/03/04 11:20:07;;;;;;;61.28;25.23;;;;;;;3.81;100.00;101086.72;20827955;28;20096;-84
2023/03/04 11:30:09;;;;;;;61.97;25.92;;;;;;;3.91;100.00;101080.00;20824133;28;20049;-84
2023/03/04 11:40:10;;;;;;;57.47;24.40;;;;;;;4.15;100.00;101074.50;20819504;28;20044;-83
2023/03/04 11:50:11;;;;;;;53.47;23.20;;;;;;;4.17;100.00;101071.91;20830599;28;20050;-82
2023/03/04 12:00:13;;;;;;;48.15;19.33;;;;;;;4.14;100.00;101058.91;20850265;28;20045;-83
2023/03/04 12:10:14;;;;;;;47.85;19.00;;;;;;;4.16;100.00;101045.13;20855878;28;20266;-84
2023/03/04 12:20:16;;;;;;;46.03;19.17;;;;;;;4.29;100.00;101025.53;20811431;28;20085;-83
2023/03/04 12:30:17;;;;;;;55.00;19.60;;;;;;;4.14;100.00;101031.28;20817143;28;20085;-83
2023/03/04 12:40:19;;;;;;;51.88;18.38;;;;;;;4.22;100.00;101008.13;20823183;28;20533;-83
2023/03/04 12:50:21;;;;;;;37.90;16.20;;;;;;;4.28;100.00;101000.47;20821958;28;20050;-83
2023/03/04 13:00:22;;;;;;;49.13;17.40;;;;;;;4.50;100.00;100993.94;20811703;28;20217;-84
2023/03/04 13:10:24;;;;;;;40.25;15.73;;;;;;;4.67;100.00;100987.34;20815633;28;20426;-83
2023/03/04 13:20:25;;;;;;;41.05;18.52;;;;;;;4.59;100.00;100979.41;20830994;28;20107;-84
2023/03/04 13:30:26;;;;;;;42.88;15.45;;;;;;;4.48;100.00;100980.09;20805271;28;20049;-83
2023/03/04 13:40:28;;;;;;;40.13;16.52;;;;;;;4.79;100.00;100969.41;20818961;28;20457;-84
2023/03/04 13:50:32;;;;;;;41.50;15.75;;;;;;;4.61;100.00;100958.72;20794017;28;20490;-84
2023/03/04 14:00:35;;;;;;;34.05;14.90;;;;;;;4.74;100.00;100960.66;20831891;28;20073;-83
2023/03/04 14:10:37;;;;;;;40.00;15.57;;;;;;;4.68;100.00;100952.78;20836073;28;20053;-84
2023/03/04 14:20:38;;;;;;;36.97;14.45;;;;;;;4.65;100.00;100942.38;20817485;28;20054;-84
2023/03/04 14:30:39;;;;;;;30.85;13.05;;;;;;;4.64;100.00;100940.59;20830721;28;20048;-83
2023/03/04 14:40:44;;;;;;;30.55;12.70;;;;;;;4.59;100.00;100930.16;20845803;28;20084;-83
2023/03/04 14:50:45;;;;;;;31.27;12.63;;;;;;;4.64;100.00;100928.50;20858710;28;20654;-83
2023/03/04 15:00:46;;;;;;;33.60;12.80;;;;;;;4.64;100.00;100920.72;20851141;28;20042;-83
2023/03/04 15:10:48;;;;;;;32.58;13.18;;;;;;;4.72;100.00;100918.25;20830191;28;20704;-84
2023/03/04 15:20:49;;;;;;;31.35;11.77;;;;;;;4.64;100.00;100919.84;20834043;28;20061;-83
2023/03/04 15:30:50;;;;;;;33.95;11.88;;;;;;;4.69;100.00;100910.41;20881981;28;20064;-82
2023/03/04 15:40:52;;;;;;;31.30;13.13;;;;;;;4.68;100.00;100902.63;20891358;28;20049;-83
2023/03/04 15:50:54;;;;;;;34.17;13.32;;;;;;;4.76;100.00;100901.03;20845846;28;20132;-84
2023/03/04 16:00:56;;;;;;;45.85;18.58;;;;;;;4.73;100.00;100894.06;20820459;28;20141;-83
2023/03/04 16:10:57;;;;;;;44.67;16.80;;;;;;;4.78;100.00;100888.94;20829255;28;20057;-84
2023/03/04 16:20:58;;;;;;;41.60;17.00;;;;;;;4.72;100.00;100886.28;20828884;28;20049;-83
2023/03/04 16:31:00;;;;;;;41.13;15.50;;;;;;;4.69;100.00;100886.22;20823777;28;20049;-83
2023/03/04 16:41:01;;;;;;;43.47;16.35;;;;;;;4.61;100.00;100888.69;20826226;28;20053;-84
2023/03/04 16:51:03;;;;;;;47.28;17.90;;;;;;;4.61;100.00;100889.56;20832594;28;20426;-84
2023/03/04 17:01:04;;;;;;;43.80;16.70;;;;;;;4.59;100.00;100885.19;20828440;28;20077;-83
2023/03/04 17:11:05;;;;;;;45.55;17.38;;;;;;;4.62;100.00;100890.44;20857441;28;20045;-84
2023/03/04 17:21:07;;;;;;;46.83;18.55;;;;;;;4.52;100.00;100888.53;20825839;28;20092;-84
2023/03/04 17:31:08;;;;;;;48.08;21.23;;;;;;;4.47;100.00;100901.44;20830089;28;20356;-84
2023/03/04 17:41:12;;;;;;;50.55;20.50;;;;;;;4.40;100.00;100898.69;20843861;28;20131;-84
2023/03/04 17:51:13;;;;;;;54.95;22.35;;;;;;;4.38;100.00;100896.09;20829745;28;20053;-84
2023/03/04 18:01:14;;;;;;;49.28;21.00;;;;;;;4.33;100.00;100893.41;20856800;28;20108;-83
2023/03/04 18:11:16;;;;;;;49.97;20.90;;;;;;;4.30;100.00;100893.34;20818983;28;20152;-83
2023/03/04 18:21:17;;;;;;;51.85;20.98;;;;;;;4.28;100.00;100889.00;20881804;28;20103;-84
2023/03/04 18:31:18;;;;;;;53.17;23.25;;;;;;;4.22;100.00;100884.59;20784267;23;20053;-75
2023/03/04 18:41:20;;;;;;;69.82;28.10;;;;;;;4.18;100.00;100877.59;20735829;28;20081;-74
2023/03/04 18:51:21;;;;;;;48.22;20.25;;;;;;;4.11;100.00;100870.53;20734369;28;20104;-75
2023/03/04 19:01:23;;;;;;;50.72;22.27;;;;;;;4.11;100.00;100867.94;20736565;28;20042;-75
2023/03/04 19:11:25;;;;;;;46.55;20.05;;;;;;;4.09;100.00;100856.69;20728155;28;20501;-75
2023/03/04 19:21:26;;;;;;;49.22;20.00;;;;;;;4.06;100.00;100848.84;20727889;28;20136;-75
2023/03/04 19:31:28;;;;;;;43.75;18.95;;;;;;;3.94;100.00;100854.69;20729929;28;20104;-74
2023/03/04 19:41:29;;;;;;;46.47;17.90;;;;;;;4.03;100.00;100860.06;20731042;28;20509;-74
2023/03/04 19:51:31;;;;;;;42.35;17.63;;;;;;;3.97;100.00;100866.81;20724076;28;20088;-74
2023/03/04 20:01:32;;;;;;;46.75;19.27;;;;;;;3.91;100.00;100854.63;20778143;23;20409;-81
2023/03/04 20:11:34;;;;;;;44.17;18.40;;;;;;;3.94;100.00;100848.66;20844725;28;20073;-80
2023/03/04 20:21:51;;;;;;;47.83;18.45;;;;;;;3.89;100.00;100848.56;20839394;23;20060;-70
2023/03/04 20:31:52;;;;;;;52.90;19.55;;;;;;;3.91;100.00;100846.00;20801803;28;20076;-68
2023/03/04 20:41:53;;;;;;;49.72;20.02;;;;;;;3.89;100.00;100847.69;20803163;28;20049;-68
2023/03/04 20:51:55;;;;;;;42.00;16.42;;;;;;;3.86;100.00;100838.13;20804796;28;20091;-70
2023/03/04 21:01:58;;;;;;;50.17;18.52;;;;;;;3.82;100.00;100838.91;20802108;28;20045;-69
2023/03/04 21:11:59;;;;;;;46.88;19.00;;;;;;;3.86;100.00;100822.59;20801772;28;20093;-70
2023/03/04 21:22:01;;;;;;;49.78;18.38;;;;;;;3.81;100.00;100808.69;20803171;28;20052;-70
2023/03/04 21:32:02;;;;;;;49.05;18.98;;;;;;;3.82;100.00;100803.53;20802509;28;20046;-70
2023/03/04 21:42:22;;;;;;;47.92;18.02;;;;;;;3.78;100.00;100809.50;20799626;28;20056;-70
2023/03/04 21:52:24;;;;;;;51.40;19.27;;;;;;;3.75;100.00;100804.28;20812100;28;20558;-71
2023/03/04 22:02:25;;;;;;;46.55;17.98;;;;;;;3.70;100.00;100808.50;20827454;28;20049;-71
2023/03/04 22:12:26;;;;;;;46.03;18.70;;;;;;;3.71;100.00;100802.47;20826121;28;20160;-70
2023/03/04 22:22:29;;;;;;;48.80;18.17;;;;;;;3.73;100.00;100794.72;20828445;28;20531;-70
2023/03/04 22:32:30;;;;;;;52.33;18.92;;;;;;;3.73;100.00;100799.91;20827305;28;20547;-70
2023/03/04 22:42:31;;;;;;;43.88;17.65;;;;;;;3.77;100.00;100792.22;20827110;28;20598;-70
2023/03/04 22:52:32;;;;;;;47.97;18.30;;;;;;;3.72;100.00;100782.63;20827289;28;20057;-70
2023/03/04 23:02:34;;;;;;;49.95;18.75;;;;;;;3.73;100.00;100782.63;20820633;28;20084;-70
2023/03/04 23:12:35;;;;;;;50.33;18.23;;;;;;;3.64;100.00;100774.72;20815756;28;20471;-70
2023/03/04 23:22:36;;;;;;;49.80;18.55;;;;;;;3.66;100.00;100773.03;20815987;28;20057;-70
2023/03/04 23:32:37;;;;;;;47.22;18.85;;;;;;;3.66;100.00;100767.84;20813751;28;20049;-71
2023/03/04 23:42:39;;;;;;;50.63;18.23;;;;;;;3.69;100.00;100759.25;20813995;28;20085;-70
2023/03/04 23:52:41;;;;;;;48.17;17.50;;;;;;;3.64;100.00;100754.03;20813983;28;20061;-71
